BGA weather

Palonegro Airport
Bucaramanga, Santander Department, Colombia

Public forecast

Using degrees Celsius for public forecast. Weather courtesy of forecast.io.

Current aviation weather report (METAR) for Palonegro Airport

Retrieved 2019/10/17 21:00 UTC (30 minutes ago):

SKBG 172100Z 35007KT 280V040 9999 SCT013TCU 24/20 A2993 RMK TCU/NE/E

Aviation forecast (TAF) for Palonegro Airport

Retrieved 2019/10/17 18:39 UTC (3 hours ago):

TAF TAF SKBG 171630Z 1718/1818 32006KT 9999 FEW010 SCT090 TEMPO 1810/1815 18005KT TX27/1719Z TN18/1811Z